Camp Crook, South Dakota
Current Conditions -  °F | °C
As of 9:15 AM on Wednesday 26 Nov 2014 (Local Time) from KBHK Reporting Station
Light Snow Light Snow  
Wind Chill: 14°   Ceiling: 1900
Heat Index: 24°   Visibility: 1mi
Dew Point: 21°   Wind: 10mph
Humidity: 88%   Direction: 360°N
Pressure: 30.24"   Gusts: NA
Location:  45.55°N, 103.97°W
Report Text: KBHK 261615Z AUTO 36009KT 1SM -SN BR FEW008 BKN019 OVC029 M04/M06 A3024 RMK AO2 P0000 T10441061
Loading
Personal Weather Stations






























Interactive Weather Map New forecast layout! Learn more

10-Day Weather Forecast

Advertisements
Track Severe Weather on mobile